createdAt,value
2023-04-07T00:00:27.104Z,100.00
2023-04-07T00:02:55.618Z,100.00
2023-04-07T00:05:24.440Z,100.00
2023-04-07T00:07:57.038Z,100.00
2023-04-07T00:10:27.013Z,100.00
2023-04-07T00:12:55.547Z,100.00
2023-04-07T00:15:27.475Z,100.00
2023-04-07T00:17:56.812Z,100.00
2023-04-07T00:20:25.647Z,100.00
2023-04-07T00:22:54.046Z,100.00
2023-04-07T00:25:22.876Z,100.00
2023-04-07T00:27:51.267Z,100.00
2023-04-07T00:30:19.582Z,100.00
2023-04-07T00:32:49.465Z,100.00
2023-04-07T00:35:17.734Z,100.00
2023-04-07T00:37:46.115Z,100.00
2023-04-07T00:40:15.089Z,100.00
2023-04-07T00:42:43.214Z,100.00
2023-04-07T00:45:12.869Z,100.00
2023-04-07T00:47:41.646Z,100.00
2023-04-07T00:50:12.196Z,100.00
2023-04-07T00:52:41.687Z,100.00
2023-04-07T00:55:11.031Z,100.00
2023-04-07T00:57:39.377Z,100.00
2023-04-07T01:00:08.787Z,100.00
2023-04-07T01:02:42.298Z,100.00
2023-04-07T01:05:17.834Z,100.00
2023-04-07T01:07:54.528Z,100.00
2023-04-07T01:10:34.923Z,100.00
2023-04-07T01:13:08.568Z,100.00
2023-04-07T01:15:38.474Z,100.00
2023-04-07T01:18:12.016Z,100.00
2023-04-07T01:20:47.679Z,100.00
2023-04-07T01:23:40.223Z,100.00
2023-04-07T01:26:21.775Z,100.00
2023-04-07T01:29:31.929Z,100.00
2023-04-07T01:32:02.099Z,100.00
2023-04-07T01:34:33.123Z,100.00
2023-04-07T01:37:03.738Z,100.00
2023-04-07T01:39:33.645Z,100.00
2023-04-07T01:42:03.179Z,100.00
2023-04-07T01:44:34.869Z,100.00
2023-04-07T01:47:04.014Z,100.00
2023-04-07T01:49:33.240Z,100.00
2023-04-07T01:52:02.726Z,100.00
2023-04-07T01:54:34.260Z,100.00
2023-04-07T01:57:02.766Z,100.00
2023-04-07T01:59:33.677Z,100.00
2023-04-07T02:02:02.076Z,100.00
2023-04-07T02:04:35.578Z,100.00
2023-04-07T02:07:10.590Z,100.00
2023-04-07T02:09:42.119Z,100.00
2023-04-07T02:12:14.301Z,100.00
2023-04-07T02:14:44.963Z,100.00
2023-04-07T02:17:14.747Z,100.00
2023-04-07T02:19:45.542Z,100.00
2023-04-07T02:22:14.652Z,100.00
2023-04-07T02:24:43.359Z,100.00
2023-04-07T02:27:11.770Z,100.00
2023-04-07T02:29:40.077Z,100.00
2023-04-07T02:32:09.695Z,100.00
2023-04-07T02:34:38.274Z,100.00
2023-04-07T02:37:06.419Z,100.00
2023-04-07T02:39:34.645Z,100.00
2023-04-07T02:42:03.024Z,100.00
2023-04-07T02:44:31.425Z,100.00
2023-04-07T02:47:00.476Z,100.00
2023-04-07T02:49:30.286Z,100.00
2023-04-07T02:51:58.471Z,100.00
2023-04-07T02:54:26.910Z,100.00
2023-04-07T02:56:55.574Z,100.00
2023-04-07T02:59:24.000Z,100.00
2023-04-07T03:01:52.508Z,100.00
2023-04-07T03:04:21.068Z,100.00
2023-04-07T03:06:50.741Z,100.00
2023-04-07T03:09:18.970Z,100.00
2023-04-07T03:11:47.568Z,100.00
2023-04-07T03:14:16.356Z,100.00
2023-04-07T03:16:44.741Z,100.00
2023-04-07T03:19:13.472Z,100.00
2023-04-07T03:21:42.522Z,100.00
2023-04-07T03:24:12.133Z,100.00
2023-04-07T03:26:40.851Z,100.00
2023-04-07T03:29:09.067Z,100.00
2023-04-07T03:31:37.808Z,100.00
2023-04-07T03:34:06.939Z,100.00
2023-04-07T03:36:35.297Z,100.00
2023-04-07T03:39:04.067Z,100.00
2023-04-07T03:41:34.230Z,100.00
2023-04-07T03:44:02.614Z,100.00
2023-04-07T03:46:30.848Z,100.00
2023-04-07T03:48:59.222Z,100.00
2023-04-07T03:51:28.937Z,100.00
2023-04-07T03:53:57.226Z,100.00
2023-04-07T03:56:26.915Z,100.00
2023-04-07T03:59:00.705Z,100.00
2023-04-07T04:01:29.265Z,100.00
2023-04-07T04:03:58.005Z,100.00
2023-04-07T04:06:29.295Z,100.00
2023-04-07T04:08:58.126Z,100.00
2023-04-07T04:11:27.620Z,100.00
2023-04-07T04:13:57.403Z,100.00
2023-04-07T04:16:25.948Z,100.00
2023-04-07T04:18:54.143Z,100.00
2023-04-07T04:21:22.689Z,100.00
2023-04-07T04:23:51.217Z,100.00
2023-04-07T04:26:19.867Z,100.00
2023-04-07T04:28:48.869Z,100.00
2023-04-07T04:31:19.188Z,100.00
2023-04-07T04:33:47.987Z,100.00
2023-04-07T04:36:16.556Z,100.00
2023-04-07T04:38:44.984Z,100.00
2023-04-07T04:41:13.184Z,100.00
2023-04-07T04:43:42.338Z,100.00
2023-04-07T04:46:11.161Z,100.00
2023-04-07T04:48:41.030Z,100.00
2023-04-07T04:51:09.475Z,100.00
2023-04-07T04:53:37.906Z,100.00
2023-04-07T04:56:06.844Z,100.00
2023-04-07T04:58:35.860Z,100.00
2023-04-07T05:01:04.324Z,100.00
2023-04-07T05:03:32.916Z,100.00
2023-04-07T05:06:02.829Z,100.00
2023-04-07T05:08:31.478Z,100.00
2023-04-07T05:11:00.040Z,100.00
2023-04-07T05:13:31.267Z,100.00
2023-04-07T05:15:59.682Z,100.00
2023-04-07T05:18:30.861Z,100.00
2023-04-07T05:20:59.089Z,100.00
2023-04-07T05:23:28.975Z,100.00
2023-04-07T05:25:57.128Z,100.00
2023-04-07T05:28:26.167Z,100.00
2023-04-07T05:30:54.421Z,100.00
2023-04-07T05:33:25.297Z,100.00
2023-04-07T05:35:54.042Z,100.00
2023-04-07T05:38:22.532Z,100.00
2023-04-07T05:40:52.205Z,100.00
2023-04-07T05:43:20.388Z,100.00
2023-04-07T05:45:49.321Z,100.00
2023-04-07T05:48:17.551Z,100.00
2023-04-07T05:50:46.049Z,100.00
2023-04-07T05:53:14.460Z,100.00
2023-04-07T05:55:44.282Z,100.00
2023-04-07T05:58:14.264Z,100.00
2023-04-07T06:00:43.167Z,100.00
2023-04-07T06:03:11.382Z,100.00
2023-04-07T06:05:43.726Z,100.00
2023-04-07T06:08:12.027Z,100.00
2023-04-07T06:10:41.889Z,100.00
2023-04-07T06:13:10.403Z,100.00
2023-04-07T06:15:40.078Z,100.00
2023-04-07T06:18:08.223Z,100.00
2023-04-07T06:20:37.108Z,100.00
2023-04-07T06:23:06.789Z,100.00
2023-04-07T06:25:35.010Z,100.00
2023-04-07T06:28:03.363Z,100.00
2023-04-07T06:30:31.771Z,100.00
2023-04-07T06:33:01.660Z,100.00
2023-04-07T06:35:30.131Z,100.00
2023-04-07T06:37:58.753Z,100.00
2023-04-07T06:40:27.116Z,100.00
2023-04-07T06:42:57.017Z,100.00
2023-04-07T06:45:25.846Z,100.00
2023-04-07T06:47:53.992Z,100.00
2023-04-07T06:50:26.172Z,100.00
2023-04-07T06:52:54.618Z,100.00
2023-04-07T06:55:22.905Z,100.00
2023-04-07T06:57:52.549Z,100.00
2023-04-07T07:00:23.108Z,100.00
2023-04-07T07:02:51.873Z,100.00
2023-04-07T07:05:20.453Z,100.00
2023-04-07T07:07:50.148Z,100.00
2023-04-07T07:10:20.476Z,100.00
2023-04-07T07:12:49.030Z,100.00
2023-04-07T07:15:17.734Z,100.00
2023-04-07T07:17:46.161Z,100.00
2023-04-07T07:20:14.734Z,100.00
2023-04-07T07:22:43.052Z,100.00
2023-04-07T07:25:13.036Z,100.00
2023-04-07T07:27:41.498Z,100.00
2023-04-07T07:30:10.946Z,100.00
2023-04-07T07:32:39.166Z,100.00
2023-04-07T07:35:08.186Z,100.00
2023-04-07T07:37:53.135Z,100.00
2023-04-07T07:40:23.128Z,100.00
2023-04-07T07:42:51.681Z,100.00
2023-04-07T07:45:20.309Z,100.00
2023-04-07T07:47:52.448Z,100.00
2023-04-07T07:50:21.023Z,100.00
2023-04-07T07:52:49.176Z,100.00
2023-04-07T07:55:17.492Z,100.00
2023-04-07T07:57:47.075Z,100.00
2023-04-07T08:00:15.909Z,100.00
2023-04-07T08:02:44.352Z,100.00
2023-04-07T08:05:13.038Z,100.00
2023-04-07T08:07:43.195Z,100.00
2023-04-07T08:10:13.751Z,100.00
2023-04-07T08:12:42.309Z,100.00
2023-04-07T08:15:12.583Z,100.00
2023-04-07T08:17:41.370Z,100.00
2023-04-07T08:20:12.772Z,100.00
2023-04-07T08:22:41.860Z,100.00
2023-04-07T08:25:10.811Z,100.00
2023-04-07T08:27:39.238Z,100.00
2023-04-07T08:30:09.019Z,100.00
2023-04-07T08:32:40.895Z,100.00
2023-04-07T08:35:09.990Z,100.00
2023-04-07T08:37:39.722Z,100.00
2023-04-07T08:40:08.920Z,100.00
2023-04-07T08:42:42.048Z,100.00
2023-04-07T08:45:11.047Z,100.00
2023-04-07T08:47:43.233Z,100.00
2023-04-07T08:50:13.244Z,100.00
2023-04-07T08:52:46.693Z,100.00
2023-04-07T08:55:15.280Z,100.00
2023-04-07T08:57:44.720Z,100.00
2023-04-07T09:00:14.610Z,99.99
2023-04-07T09:02:45.868Z,100.00
2023-04-07T09:05:15.919Z,98.60
2023-04-07T09:07:44.533Z,98.61
2023-04-07T09:10:13.106Z,98.21
2023-04-07T09:12:42.076Z,97.53
2023-04-07T09:15:11.868Z,97.53
2023-04-07T09:17:40.816Z,98.15
2023-04-07T09:20:11.507Z,97.89
2023-04-07T09:22:42.521Z,96.62
2023-04-07T09:25:16.853Z,97.04
2023-04-07T09:28:06.792Z,97.17
2023-04-07T09:30:36.016Z,96.82
2023-04-07T09:33:05.232Z,97.22
2023-04-07T09:35:53.603Z,96.43
2023-04-07T09:38:23.157Z,97.29
2023-04-07T09:40:51.287Z,97.33
2023-04-07T09:43:20.972Z,97.12
2023-04-07T09:45:49.698Z,97.25
2023-04-07T09:48:22.111Z,97.30
2023-04-07T09:50:52.063Z,96.18
2023-04-07T09:53:20.567Z,95.73
2023-04-07T09:55:50.879Z,95.63
2023-04-07T09:58:19.748Z,95.15
2023-04-07T10:00:48.880Z,95.53
2023-04-07T10:03:17.593Z,95.87
2023-04-07T10:05:48.853Z,95.87
2023-04-07T10:08:20.275Z,95.95
2023-04-07T10:10:50.993Z,96.32
2023-04-07T10:13:19.857Z,96.14
2023-04-07T10:15:49.191Z,96.24
2023-04-07T10:18:21.735Z,95.94
2023-04-07T10:20:53.267Z,96.33
2023-04-07T10:23:29.354Z,96.36
2023-04-07T10:26:00.748Z,95.90
2023-04-07T10:28:31.867Z,96.09
2023-04-07T10:31:00.757Z,96.51
2023-04-07T10:33:47.634Z,95.92
2023-04-07T10:36:16.814Z,96.29
2023-04-07T10:39:21.122Z,95.64
2023-04-07T10:41:53.338Z,94.84
2023-04-07T10:44:47.065Z,94.43
2023-04-07T10:47:16.426Z,94.00
2023-04-07T10:50:19.425Z,94.53
2023-04-07T10:52:48.709Z,94.99
2023-04-07T10:55:35.357Z,94.97
2023-04-07T10:58:18.014Z,94.01
2023-04-07T11:01:31.329Z,93.52
2023-04-07T11:04:01.727Z,92.73
2023-04-07T11:06:30.235Z,92.22
2023-04-07T11:08:58.451Z,92.39
2023-04-07T11:11:42.863Z,91.99
2023-04-07T11:14:11.185Z,91.92
2023-04-07T11:16:45.832Z,90.92
2023-04-07T11:19:14.602Z,91.55
2023-04-07T11:21:42.862Z,90.27
2023-04-07T11:24:11.370Z,90.00
2023-04-07T11:26:42.824Z,88.93
2023-04-07T11:29:12.967Z,89.20
2023-04-07T11:31:42.284Z,89.68
2023-04-07T11:34:10.849Z,90.15
2023-04-07T11:36:41.953Z,90.09
2023-04-07T11:39:21.616Z,89.65
2023-04-07T11:41:54.651Z,88.72
2023-04-07T11:44:22.921Z,88.38
2023-04-07T11:46:56.111Z,88.54
2023-04-07T11:49:28.112Z,88.15
2023-04-07T11:52:01.000Z,87.50
2023-04-07T11:54:29.510Z,87.26
2023-04-07T11:56:59.103Z,87.31
2023-04-07T11:59:28.803Z,87.06
2023-04-07T12:01:58.020Z,87.34
2023-04-07T12:04:26.734Z,86.66
2023-04-07T12:06:55.344Z,86.97
2023-04-07T12:09:36.524Z,86.07
2023-04-07T12:12:08.564Z,85.88
2023-04-07T12:14:37.012Z,86.37
2023-04-07T12:17:05.674Z,86.28
2023-04-07T12:19:34.932Z,85.80
2023-04-07T12:22:03.211Z,85.47
2023-04-07T12:24:32.686Z,85.23
2023-04-07T12:27:01.135Z,85.14
2023-04-07T12:29:30.881Z,84.27
2023-04-07T12:31:59.511Z,83.86
2023-04-07T12:34:28.139Z,83.55
2023-04-07T12:36:56.916Z,83.59
2023-04-07T12:39:25.580Z,83.09
2023-04-07T12:41:54.204Z,82.48
2023-04-07T12:44:22.343Z,81.31
2023-04-07T12:46:52.411Z,80.62
2023-04-07T12:49:20.594Z,80.53
2023-04-07T12:51:48.985Z,80.28
2023-04-07T12:54:17.281Z,79.35
2023-04-07T12:56:46.099Z,80.20
2023-04-07T12:59:14.428Z,80.51
2023-04-07T13:01:42.882Z,80.40
2023-04-07T13:04:15.161Z,80.58
2023-04-07T13:06:43.831Z,80.73
2023-04-07T13:09:12.079Z,81.41
2023-04-07T13:11:40.481Z,81.00
2023-04-07T13:14:09.052Z,81.96
2023-04-07T13:16:37.686Z,81.52
2023-04-07T13:19:06.222Z,80.50
2023-04-07T13:21:46.172Z,80.65
2023-04-07T13:24:15.960Z,80.10
2023-04-07T13:26:44.614Z,80.62
2023-04-07T13:29:13.071Z,80.48
2023-04-07T13:31:41.558Z,81.03
2023-04-07T13:34:10.003Z,80.83
2023-04-07T13:36:39.732Z,80.71
2023-04-07T13:39:11.374Z,79.97
2023-04-07T13:41:39.646Z,80.26
2023-04-07T13:44:07.763Z,80.74
2023-04-07T13:46:37.013Z,80.92
2023-04-07T13:49:05.470Z,80.65
2023-04-07T13:51:34.116Z,79.85
2023-04-07T13:54:04.009Z,79.56
2023-04-07T13:56:32.033Z,79.90
2023-04-07T13:59:00.372Z,80.03
2023-04-07T14:01:28.939Z,80.54
2023-04-07T14:04:00.739Z,79.15
2023-04-07T14:06:29.604Z,79.03
2023-04-07T14:09:02.250Z,78.89
2023-04-07T14:11:33.148Z,79.45
2023-04-07T14:14:03.138Z,80.43
2023-04-07T14:16:34.630Z,80.28
2023-04-07T14:19:05.849Z,80.05
2023-04-07T14:21:35.132Z,80.02
2023-04-07T14:24:03.561Z,81.15
2023-04-07T14:26:33.429Z,80.67
2023-04-07T14:29:01.746Z,80.57
2023-04-07T14:31:30.192Z,79.42
2023-04-07T14:33:58.393Z,78.45
2023-04-07T14:36:27.410Z,78.93
2023-04-07T14:38:57.792Z,79.10
2023-04-07T14:41:26.186Z,79.35
2023-04-07T14:43:57.052Z,78.66
2023-04-07T14:46:25.840Z,79.13
2023-04-07T14:48:54.109Z,78.59
2023-04-07T14:51:22.992Z,78.32
2023-04-07T14:53:56.213Z,78.05
2023-04-07T14:56:27.268Z,77.51
2023-04-07T14:58:56.960Z,77.85
2023-04-07T15:01:25.625Z,77.58
2023-04-07T15:03:54.139Z,76.94
2023-04-07T15:06:23.707Z,77.14
2023-04-07T15:08:53.842Z,77.21
2023-04-07T15:11:25.698Z,76.49
2023-04-07T15:13:54.467Z,76.39
2023-04-07T15:16:24.382Z,76.17
2023-04-07T15:18:52.690Z,75.97
2023-04-07T15:21:21.058Z,76.04
2023-04-07T15:23:49.716Z,77.24
2023-04-07T15:26:18.247Z,77.15
2023-04-07T15:28:47.323Z,77.45
2023-04-07T15:31:15.700Z,77.38
2023-04-07T15:33:46.901Z,77.70
2023-04-07T15:36:15.703Z,78.78
2023-04-07T15:38:43.989Z,79.93
2023-04-07T15:41:16.485Z,79.76
2023-04-07T15:43:45.298Z,80.11
2023-04-07T15:46:14.586Z,80.25
2023-04-07T15:48:44.335Z,80.87
2023-04-07T15:51:12.562Z,81.39
2023-04-07T15:53:41.134Z,82.08
2023-04-07T15:56:09.821Z,82.31
2023-04-07T15:58:39.216Z,82.49
2023-04-07T16:01:07.671Z,82.97
2023-04-07T16:03:35.994Z,83.22
2023-04-07T16:06:06.020Z,83.68
2023-04-07T16:08:38.005Z,83.96
2023-04-07T16:11:08.749Z,85.03
2023-04-07T16:13:39.966Z,85.44
2023-04-07T16:16:08.882Z,86.08
2023-04-07T16:18:37.158Z,86.84
2023-04-07T16:21:11.513Z,86.84
2023-04-07T16:23:40.109Z,86.55
2023-04-07T16:26:08.758Z,88.36
2023-04-07T16:28:42.987Z,89.74
2023-04-07T16:31:12.445Z,90.44
2023-04-07T16:33:40.781Z,90.53
2023-04-07T16:36:11.280Z,91.14
2023-04-07T16:38:39.577Z,90.76
2023-04-07T16:41:09.005Z,91.85
2023-04-07T16:43:37.163Z,92.26
2023-04-07T16:46:07.127Z,93.00
2023-04-07T16:48:35.479Z,93.60
2023-04-07T16:51:03.677Z,95.14
2023-04-07T16:53:33.464Z,96.49
2023-04-07T16:56:01.790Z,96.58
2023-04-07T16:58:30.014Z,97.04
2023-04-07T17:00:58.407Z,97.06
2023-04-07T17:03:26.992Z,97.07
2023-04-07T17:05:55.682Z,98.90
2023-04-07T17:08:26.721Z,100.00
2023-04-07T17:10:56.731Z,99.30
2023-04-07T17:13:25.433Z,99.28
2023-04-07T17:15:54.847Z,98.41
2023-04-07T17:18:23.208Z,99.96
2023-04-07T17:20:51.988Z,100.00
2023-04-07T17:23:20.109Z,100.00
2023-04-07T17:25:50.561Z,100.00
2023-04-07T17:28:20.550Z,100.00
2023-04-07T17:30:48.836Z,100.00
2023-04-07T17:33:17.696Z,100.00
2023-04-07T17:35:47.710Z,100.00
2023-04-07T17:38:16.271Z,100.00
2023-04-07T17:40:45.161Z,100.00
2023-04-07T17:43:13.741Z,100.00
2023-04-07T17:45:43.553Z,100.00
2023-04-07T17:48:12.330Z,100.00
2023-04-07T17:50:40.910Z,100.00
2023-04-07T17:53:09.108Z,100.00
2023-04-07T17:55:40.197Z,100.00
2023-04-07T17:58:09.859Z,100.00
2023-04-07T18:00:38.221Z,100.00
2023-04-07T18:03:08.787Z,100.00
2023-04-07T18:05:37.886Z,100.00
2023-04-07T18:08:06.961Z,100.00
2023-04-07T18:10:35.194Z,100.00
2023-04-07T18:13:05.707Z,100.00
2023-04-07T18:15:34.106Z,100.00
2023-04-07T18:18:04.649Z,100.00
2023-04-07T18:20:34.704Z,100.00
2023-04-07T18:23:06.869Z,100.00
2023-04-07T18:25:35.311Z,100.00
2023-04-07T18:28:04.892Z,100.00
2023-04-07T18:30:33.542Z,100.00
2023-04-07T18:33:01.945Z,100.00
2023-04-07T18:35:30.173Z,100.00
2023-04-07T18:38:04.672Z,100.00
2023-04-07T18:40:35.884Z,100.00
2023-04-07T18:43:04.155Z,100.00
2023-04-07T18:45:36.974Z,100.00
2023-04-07T18:48:05.804Z,100.00
2023-04-07T18:50:34.074Z,100.00
2023-04-07T18:53:07.279Z,100.00
2023-04-07T18:55:36.782Z,100.00
2023-04-07T18:58:05.266Z,100.00
2023-04-07T19:00:33.721Z,100.00
2023-04-07T19:03:02.433Z,100.00
2023-04-07T19:05:35.441Z,100.00
2023-04-07T19:08:05.549Z,100.00
2023-04-07T19:10:33.761Z,100.00
2023-04-07T19:13:02.358Z,100.00
2023-04-07T19:15:34.493Z,100.00
2023-04-07T19:18:03.378Z,100.00
2023-04-07T19:20:33.772Z,100.00
2023-04-07T19:23:03.008Z,100.00
2023-04-07T19:25:36.063Z,100.00
2023-04-07T19:28:04.728Z,100.00
2023-04-07T19:30:33.453Z,100.00
2023-04-07T19:33:01.972Z,100.00
2023-04-07T19:35:30.644Z,100.00
2023-04-07T19:37:59.331Z,100.00
2023-04-07T19:40:28.199Z,100.00
2023-04-07T19:42:58.072Z,100.00
2023-04-07T19:45:29.124Z,100.00
2023-04-07T19:47:58.447Z,100.00
2023-04-07T19:50:28.406Z,100.00
2023-04-07T19:52:57.070Z,100.00
2023-04-07T19:55:26.208Z,100.00
2023-04-07T19:57:54.775Z,100.00
2023-04-07T20:00:24.810Z,100.00
2023-04-07T20:02:53.238Z,100.00
2023-04-07T20:05:22.579Z,100.00
2023-04-07T20:07:50.788Z,100.00
2023-04-07T20:10:19.452Z,100.00
2023-04-07T20:12:47.644Z,100.00
2023-04-07T20:15:16.881Z,100.00
2023-04-07T20:17:48.232Z,100.00
2023-04-07T20:20:17.888Z,100.00
2023-04-07T20:22:46.317Z,100.00
2023-04-07T20:25:16.720Z,100.00
2023-04-07T20:27:49.356Z,100.00
2023-04-07T20:30:18.303Z,100.00
2023-04-07T20:32:48.296Z,100.00
2023-04-07T20:35:16.846Z,99.78
2023-04-07T20:37:45.777Z,99.14
2023-04-07T20:40:14.226Z,98.72
2023-04-07T20:42:42.578Z,98.51
2023-04-07T20:45:12.592Z,99.09
2023-04-07T20:47:41.159Z,98.72
2023-04-07T20:50:11.815Z,98.45
2023-04-07T20:52:41.518Z,98.12
2023-04-07T20:55:10.998Z,97.90
2023-04-07T20:57:40.722Z,97.57
2023-04-07T21:00:11.108Z,97.38
2023-04-07T21:02:40.151Z,97.42
2023-04-07T21:05:09.037Z,97.30
2023-04-07T21:07:38.992Z,97.32
2023-04-07T21:10:08.923Z,96.77
2023-04-07T21:12:37.869Z,97.04
2023-04-07T21:15:07.030Z,97.35
2023-04-07T21:17:35.606Z,96.61
2023-04-07T21:20:04.254Z,97.39
2023-04-07T21:22:32.621Z,97.59
2023-04-07T21:25:02.379Z,97.72
2023-04-07T21:27:31.787Z,96.88
2023-04-07T21:30:00.334Z,96.80
2023-04-07T21:32:28.650Z,97.76
2023-04-07T21:34:56.913Z,98.10
2023-04-07T21:37:25.500Z,97.57
2023-04-07T21:39:54.365Z,97.73
2023-04-07T21:42:24.080Z,97.07
2023-04-07T21:44:52.896Z,97.51
2023-04-07T21:47:21.320Z,97.75
2023-04-07T21:49:49.931Z,98.02
2023-04-07T21:52:18.737Z,97.99
2023-04-07T21:54:47.713Z,98.17
2023-04-07T21:57:15.946Z,98.72
2023-04-07T21:59:45.657Z,98.75
2023-04-07T22:02:14.174Z,98.30
2023-04-07T22:04:42.696Z,98.68
2023-04-07T22:07:11.183Z,98.54
2023-04-07T22:09:39.503Z,98.67
2023-04-07T22:12:07.566Z,98.63
2023-04-07T22:14:35.866Z,98.84
2023-04-07T22:17:05.777Z,98.56
2023-04-07T22:19:36.670Z,99.62
2023-04-07T22:22:07.687Z,99.75
2023-04-07T22:24:36.121Z,98.20
2023-04-07T22:27:05.027Z,98.21
2023-04-07T22:29:33.845Z,99.64
2023-04-07T22:32:02.407Z,99.72
2023-04-07T22:34:32.131Z,100.00
2023-04-07T22:37:00.645Z,99.73
2023-04-07T22:39:29.091Z,100.00
2023-04-07T22:41:57.313Z,100.00
2023-04-07T22:44:29.892Z,100.00
2023-04-07T22:47:01.278Z,100.00
2023-04-07T22:49:32.429Z,100.00
2023-04-07T22:52:02.010Z,100.00
2023-04-07T22:54:30.825Z,100.00
2023-04-07T22:56:58.999Z,100.00
2023-04-07T22:59:27.168Z,100.00
2023-04-07T23:01:57.696Z,100.00
2023-04-07T23:04:27.451Z,100.00
2023-04-07T23:06:56.320Z,100.00
2023-04-07T23:09:26.527Z,100.00
2023-04-07T23:11:54.981Z,100.00
2023-04-07T23:14:23.516Z,100.00
2023-04-07T23:16:52.306Z,100.00
2023-04-07T23:19:20.700Z,100.00
2023-04-07T23:21:48.895Z,100.00
2023-04-07T23:24:17.116Z,100.00
2023-04-07T23:26:47.034Z,100.00
2023-04-07T23:29:15.132Z,100.00
2023-04-07T23:31:43.514Z,100.00
2023-04-07T23:34:11.809Z,100.00
2023-04-07T23:36:39.945Z,100.00
2023-04-07T23:39:08.110Z,100.00
2023-04-07T23:41:36.672Z,100.00
2023-04-07T23:44:07.058Z,100.00
2023-04-07T23:46:35.585Z,100.00
2023-04-07T23:49:03.801Z,100.00
2023-04-07T23:51:31.937Z,100.00
2023-04-07T23:54:00.517Z,100.00
2023-04-07T23:56:29.146Z,100.00
2023-04-07T23:59:00.493Z,100.00
